Latest Weather Observations for Perth

IDW60901

Issued at 3:51 pm WST Wednesday 24 April 2019 (issued every 10 minutes, with the page automatically refreshed every 10 minutes)

About weather observations | Map of Perth area stations | Latest observations for Perth area | Other Formats
Station Details ID: 009225 Name: PERTH METRO Lat: -31.92 Lon: 115.87 Height: 24.9 m
Data from the previous 72 hours. | See also: Recent months at Perth
Date/Time
WST
Temp
°C
App
Temp
°C
Dew
Point
°C
Rel
Hum
%
Delta-T
°C
Wind Press
QNH
hPa
Press
MSL
hPa
Rain since
9am
mm
Dir  Spd
km/h
Gust
km/h
Spd
kts
Gust
kts
24/03:30pm 27.9 25.2 7.2 27 11.1 ESE 11 20 6 11 1023.9 1023.8 0.0
24/03:00pm 28.0 25.7 7.3 27 11.0 ESE 9 17 5 9 1024.1 1024.0 0.0
24/02:30pm 27.5 24.3 6.8 27 11.0 ESE 13 20 7 11 1024.3 1024.2 0.0
24/02:00pm 27.5 24.9 7.9 29 10.5 SE 11 19 6 10 1024.3 1024.2 0.0
24/01:30pm 26.9 24.4 8.4 31 10.0 SSE 11 22 6 12 1024.6 1024.5 0.0
24/01:00pm 26.6 24.2 8.6 32 9.7 SE 11 17 6 9 1025.0 1024.9 0.0
24/12:30pm 27.0 25.4 8.9 32 9.9 E 7 15 4 8 1025.6 1025.5 0.0
24/12:00pm 25.4 23.6 9.3 36 8.8 ESE 9 17 5 9 1026.0 1025.9 0.0
24/11:30am 25.2 23.9 9.9 38 8.4 ESE 7 13 4 7 1026.5 1026.4 0.0
24/11:00am 23.4 21.6 9.4 41 7.5 E 9 15 5 8 1026.9 1026.8 0.0
24/10:30am 22.4 21.1 9.9 45 6.8 E 7 13 4 7 1027.2 1027.1 0.0
24/10:00am 21.5 19.4 9.7 47 6.3 E 11 17 6 9 1027.3 1027.2 0.0
24/09:30am 20.1 18.3 9.4 50 5.7 ESE 9 17 5 9 1027.3 1027.2 0.0
24/09:00am 19.3 17.1 9.5 53 5.2 ENE 11 22 6 12 1027.4 1027.3 0.0
24/08:30am 18.4 16.4 10.0 58 4.5 ENE 11 17 6 9 1027.3 1027.2 0.0
24/08:00am 17.4 16.1 9.8 61 4.0 ENE 7 13 4 7 1027.2 1027.1 0.0
24/07:30am 14.9 14.2 9.9 72 2.6 ENE 4 11 2 6 1026.8 1026.7 0.0
24/07:00am 13.7 13.3 9.7 77 2.0 ENE 2 7 1 4 1026.4 1026.3 0.0
24/06:30am 13.1 13.0 9.4 78 1.9 CALM 0 0 0 0 1026.2 1026.1 0.0
24/06:00am 14.5 14.0 9.5 72 2.6 ENE 2 7 1 4 1026.1 1026.0 0.0
24/05:30am 14.4 13.3 9.8 74 2.4 ENE 6 9 3 5 1025.7 1025.6 0.0
24/05:00am 14.5 14.0 9.5 72 2.6 ENE 2 7 1 4 1025.5 1025.4 0.0
24/04:30am 15.4 14.6 9.5 68 3.1 ENE 4 9 2 5 1025.3 1025.2 0.0
24/04:00am 15.2 13.9 9.3 68 3.0 ENE 6 13 3 7 1025.2 1025.1 0.0
24/03:30am 12.9 12.2 9.9 82 1.5 ESE 4 9 2 5 1025.2 1025.1 0.0
24/03:00am 11.0 10.9 9.3 89 0.8 CALM 0 0 0 0 1025.2 1025.1 0.0
24/02:30am 11.5 11.4 9.6 88 1.0 CALM 0 0 0 0 1025.3 1025.2 0.0
24/02:00am 12.0 11.9 9.6 85 1.2 CALM 0 0 0 0 1025.5 1025.4 0.0
24/01:30am 12.4 12.3 9.6 83 1.4 CALM 0 0 0 0 1025.6 1025.5 0.0
24/01:00am 13.3 13.2 9.5 78 1.9 CALM 0 0 0 0 1025.4 1025.3 0.0
24/12:30am 15.3 14.9 9.9 70 2.8 SSE 2 7 1 4 1025.4 1025.3 0.0
24/12:00am 16.1 14.9 10.4 69 3.0 SSE 7 9 4 5 1025.5 1025.4 0.0
 
Date/Time
WST
Temp
°C
App
Temp
°C
Dew
Point
°C
Rel
Hum
%
Delta-T
°C
Wind Press
QNH
hPa
Press
MSL
hPa
Rain since
9am
mm
Dir  Spd
km/h
Gust
km/h
Spd
kts
Gust
kts
23/11:30pm 16.1 14.9 10.4 69 3.0 SSE 7 11 4 6 1025.4 1025.3 0.0
23/11:00pm 17.1 15.6 10.7 66 3.4 SSE 9 15 5 8 1025.5 1025.4 0.0
23/10:30pm 16.9 16.0 10.5 66 3.4 S 6 9 3 5 1025.4 1025.3 0.0
23/10:00pm 17.6 16.5 10.7 64 3.7 S 7 11 4 6 1025.5 1025.4 0.0
23/09:30pm 18.0 16.7 11.1 64 3.7 SSE 9 11 5 6 1025.5 1025.4 0.0
23/09:00pm 18.7 17.4 11.3 62 4.0 S 9 15 5 8 1025.6 1025.5 0.0
23/08:30pm 19.0 17.7 11.1 60 4.3 S 9 20 5 11 1025.4 1025.3 0.0
23/08:00pm 19.6 17.6 10.3 55 5.0 S 11 17 6 9 1025.2 1025.1 0.0
23/07:30pm 19.8 17.6 9.4 51 5.5 S 11 17 6 9 1025.0 1024.9 0.0
23/07:00pm 20.1 18.2 9.1 49 5.8 S 9 15 5 8 1024.7 1024.6 0.0
23/06:30pm 20.2 18.2 8.5 47 6.1 SSW 9 15 5 8 1024.5 1024.4 0.0
23/06:00pm 20.2 18.7 9.2 49 5.8 SSW 7 15 4 8 1024.1 1024.0 0.0
23/05:30pm 21.1 19.0 9.7 48 6.1 SSW 11 19 6 10 1023.8 1023.7 0.0
23/05:00pm 21.6 20.1 13.0 58 4.9 SW 13 24 7 13 1023.5 1023.4 0.0
23/04:30pm 23.3 20.8 9.7 42 7.4 SW 13 22 7 12 1023.2 1023.1 0.0
23/04:00pm 23.5 21.4 9.9 42 7.4 SSW 11 24 6 13 1023.1 1023.0 0.0
23/03:30pm 24.6 22.7 11.9 45 7.2 SSW 13 22 7 12 1023.1 1023.0 0.0
23/03:00pm 25.6 22.6 7.7 32 9.5 SW 13 24 7 13 1022.9 1022.8 0.0
23/02:30pm 27.2 24.7 4.9 24 11.4 SW 7 11 4 6 1022.9 1022.8 0.0
23/02:00pm 26.4 23.3 5.4 26 10.7 SE 11 22 6 12 1022.9 1022.8 0.0
23/01:30pm 27.2 24.9 4.9 24 11.4 WSW 6 9 3 5 1023.0 1022.9 0.0
23/01:00pm 26.6 24.2 4.4 24 11.2 E 6 9 3 5 1023.2 1023.1 0.0
23/12:30pm 26.1 24.0 5.7 27 10.5 E 6 13 3 7 1023.8 1023.7 0.0
23/12:00pm 25.5 24.1 7.1 31 9.6 NE 4 11 2 6 1024.4 1024.3 0.0
23/11:30am 24.4 22.4 7.1 33 9.0 NE 7 9 4 5 1024.6 1024.5 0.0
23/11:00am 24.2 22.5 7.4 34 8.8 E 6 9 3 5 1024.9 1024.8 0.0
23/10:30am 23.2 21.3 7.7 37 8.1 ESE 7 11 4 6 1025.3 1025.2 0.0
23/10:00am 21.7 19.3 7.2 39 7.4 E 9 15 5 8 1025.5 1025.4 0.0
23/09:30am 20.5 18.8 7.5 43 6.7 E 6 11 3 6 1025.5 1025.4 0.0
23/09:00am 18.8 17.0 7.9 49 5.6 E 7 15 4 8 1025.5 1025.4 0.0
23/08:30am 17.1 15.6 8.5 57 4.4 E 6 11 3 6 1025.5 1025.4 0.0
23/08:00am 15.2 14.9 10.2 72 2.6 SSE 2 7 1 4 1025.1 1025.0 0.0
23/07:30am 10.4 10.1 8.5 88 0.9 CALM 0 0 0 0 1024.8 1024.7 0.0
23/07:00am 8.8 7.4 7.3 90 0.7 SSE 4 7 2 4 1024.4 1024.3 0.0
23/06:30am 8.8 8.2 7.4 91 0.7 CALM 0 0 0 0 1024.4 1024.3 0.0
23/06:00am 9.1 8.5 7.4 89 0.8 CALM 0 0 0 0 1024.2 1024.1 0.0
23/05:30am 9.6 9.0 7.4 86 1.0 CALM 0 0 0 0 1024.0 1023.9 0.0
23/05:00am 10.3 9.8 7.7 84 1.2 CALM 0 0 0 0 1024.2 1024.1 0.0
23/04:30am 11.7 11.2 7.8 77 1.9 CALM 0 0 0 0 1023.9 1023.8 0.0
23/04:00am 12.7 11.1 7.8 72 2.4 SSE 6 11 3 6 1024.1 1024.0 0.0
23/03:30am 13.3 11.1 8.0 70 2.6 S 9 11 5 6 1024.0 1023.9 0.0
23/03:00am 12.4 10.7 7.5 72 2.4 S 6 11 3 6 1024.1 1024.0 0.0
23/02:30am 11.8 10.1 7.7 76 2.0 S 6 9 3 5 1024.2 1024.1 0.0
23/02:00am 11.0 10.4 7.5 79 1.7 CALM 0 0 0 0 1024.1 1024.0 0.0
23/01:30am 11.5 10.4 6.8 73 2.2 S 2 7 1 4 1024.1 1024.0 0.0
23/01:00am 11.5 10.2 7.6 77 1.9 S 4 7 2 4 1023.9 1023.8 0.0
23/12:30am 11.6 10.8 8.3 80 1.6 S 2 6 1 3 1023.9 1023.8 0.0
23/12:00am 11.6 11.1 7.9 78 1.8 CALM 0 0 0 0 1023.8 1023.7 0.0
 
Date/Time
WST
Temp
°C
App
Temp
°C
Dew
Point
°C
Rel
Hum
%
Delta-T
°C
Wind Press
QNH
hPa
Press
MSL
hPa
Rain since
9am
mm
Dir  Spd
km/h
Gust
km/h
Spd
kts
Gust
kts
22/11:30pm 12.7 12.2 7.8 72 2.4 CALM 0 0 0 0 1024.0 1023.9 0.0
22/11:00pm 14.0 13.5 8.0 67 3.0 CALM 0 2 0 1 1024.2 1024.1 0.0
22/10:30pm 15.9 14.1 7.9 59 4.0 S 7 13 4 7 1024.3 1024.2 0.0
22/10:00pm 16.1 14.0 8.3 60 3.9 S 9 13 5 7 1024.1 1024.0 0.0
22/09:30pm 16.8 14.5 9.0 60 4.0 S 11 17 6 9 1024.0 1023.9 0.0
22/09:00pm 17.2 15.0 9.4 60 4.1 SSE 11 17 6 9 1023.9 1023.8 0.0
22/08:30pm 17.7 15.5 9.3 58 4.4 SSE 11 17 6 9 1023.7 1023.6 0.0
22/08:00pm 18.1 15.9 7.8 51 5.2 S 9 15 5 8 1023.6 1023.5 0.0
22/07:30pm 18.5 16.0 6.7 46 5.9 S 9 15 5 8 1023.2 1023.1 0.0
22/07:00pm 19.1 16.7 6.9 45 6.1 SSW 9 15 5 8 1022.9 1022.8 0.0
22/06:30pm 19.2 16.6 6.3 43 6.4 S 9 15 5 8 1022.5 1022.4 0.0
22/06:00pm 19.6 17.3 5.6 40 6.9 S 7 11 4 6 1022.4 1022.3 0.0
22/05:30pm 20.3 17.7 5.9 39 7.2 SSW 9 15 5 8 1022.2 1022.1 0.0
22/05:00pm 21.4 17.8 4.9 34 8.1 SW 13 20 7 11 1022.2 1022.1 0.0
22/04:30pm 22.9 20.0 4.9 31 8.9 SW 9 13 5 7 1021.9 1021.8 0.0
22/04:00pm 23.0 19.2 4.0 29 9.3 WSW 13 19 7 10 1022.0 1021.9 0.0
22/03:30pm 23.1 18.4 3.1 27 9.6 WSW 17 28 9 15 1022.1 1022.0 0.0
22/03:00pm 24.6 21.3 4.4 27 10.0 SW 11 19 6 10 1021.9 1021.8 0.0
22/02:30pm 24.4 20.7 4.2 27 10.0 SW 13 20 7 11 1021.9 1021.8 0.0
22/02:00pm 24.4 21.6 5.2 29 9.7 SSW 9 17 5 9 1021.9 1021.8 0.0
22/01:30pm 24.2 21.4 5.1 29 9.6 SSE 9 15 5 8 1022.2 1022.1 0.0
22/01:00pm 24.5 22.5 4.3 27 10.0 W 4 11 2 6 1022.3 1022.2 0.0
22/12:30pm 23.8 20.7 3.7 27 9.8 NE 9 15 5 8 1022.8 1022.7 0.0
22/12:00pm 24.2 22.7 5.1 29 9.6 NNE 2 6 1 3 1023.2 1023.1 0.0
22/11:30am 23.1 20.8 4.6 30 9.2 NE 6 11 3 6 1023.8 1023.7 0.0
22/11:00am 22.3 19.7 6.1 35 8.2 NNE 9 19 5 10 1024.0 1023.9 0.0
22/10:30am 21.1 18.3 5.1 35 7.9 N 9 15 5 8 1024.3 1024.2 0.0
22/10:00am 19.8 16.9 4.7 37 7.3 NE 9 13 5 7 1024.6 1024.5 0.0
22/09:30am 18.7 16.1 6.2 44 6.2 NE 9 15 5 8 1024.5 1024.4 0.0
22/09:00am 17.1 14.2 4.8 44 5.8 SSE 9 17 5 9 1024.7 1024.6 0.0
22/08:30am 15.6 13.4 5.2 50 4.9 S 6 9 3 5 1024.6 1024.5 0.0
22/08:00am 12.7 12.1 7.4 70 2.6 CALM 0 6 0 3 1024.5 1024.4 0.0
22/07:30am 8.4 7.6 6.4 87 0.9 CALM 0 0 0 0 1024.3 1024.2 0.0
22/07:00am 7.1 6.0 5.1 87 0.9 CALM 0 0 0 0 1024.1 1024.0 0.0
22/06:30am 7.0 5.5 5.0 87 0.9 S 2 6 1 3 1023.8 1023.7 0.0
22/06:00am 7.4 6.3 5.2 86 1.0 CALM 0 0 0 0 1023.7 1023.6 0.0
22/05:30am 7.4 5.9 5.2 86 1.0 S 2 6 1 3 1023.5 1023.4 0.0
22/05:00am 7.4 6.3 5.2 86 1.0 CALM 0 0 0 0 1023.6 1023.5 0.0
22/04:30am 7.4 6.0 5.5 88 0.8 S 2 6 1 3 1023.6 1023.5 0.0
22/04:00am 7.7 6.8 6.0 89 0.8 CALM 0 0 0 0 1023.7 1023.6 0.0
22/03:30am 7.7 6.8 6.0 89 0.8 CALM 0 0 0 0 1023.8 1023.7 0.0
22/03:00am 7.9 7.1 6.4 90 0.7 CALM 0 0 0 0 1023.7 1023.6 0.0
22/02:30am 8.3 7.6 7.1 92 0.6 CALM 0 0 0 0 1023.7 1023.6 0.0
22/02:00am 8.4 7.8 7.3 93 0.5 CALM 0 0 0 0 1023.8 1023.7 0.0
22/01:30am 8.8 8.3 7.9 94 0.4 CALM 0 0 0 0 1023.8 1023.7 0.0
22/01:00am 9.3 8.9 8.4 94 0.4 CALM 0 0 0 0 1023.9 1023.8 0.0
22/12:30am 9.4 9.0 8.2 92 0.6 CALM 0 0 0 0 1023.9 1023.8 0.0
22/12:00am 9.7 9.3 8.1 90 0.8 CALM 0 0 0 0 1023.9 1023.8 0.0
 
Date/Time
WST
Temp
°C
App
Temp
°C
Dew
Point
°C
Rel
Hum
%
Delta-T
°C
Wind Press
QNH
hPa
Press
MSL
hPa
Rain since
9am
mm
Dir  Spd
km/h
Gust
km/h
Spd
kts
Gust
kts
21/11:30pm 10.2 9.8 8.3 88 0.9 CALM 0 0 0 0 1024.1 1024.0 0.0
21/11:00pm 10.8 10.5 8.6 86 1.1 CALM 0 0 0 0 1024.2 1024.1 0.0
21/10:30pm 11.7 11.5 8.9 83 1.4 CALM 0 0 0 0 1024.4 1024.3 0.0
21/10:00pm 13.0 12.9 9.3 78 1.9 CALM 0 0 0 0 1024.4 1024.3 0.0
21/09:30pm 14.2 12.7 9.0 71 2.6 S 7 9 4 5 1024.6 1024.5 0.0
21/09:00pm 14.8 13.4 9.4 70 2.8 S 7 13 4 7 1024.6 1024.5 0.0
21/08:30pm 15.0 13.6 9.4 69 2.9 S 7 13 4 7 1024.6 1024.5 0.0
21/08:00pm 15.7 13.9 9.6 67 3.2 S 9 15 5 8 1024.7 1024.6 0.0
21/07:30pm 16.1 14.3 9.5 65 3.4 SSE 9 17 5 9 1024.9 1024.8 0.0
21/07:00pm 16.4 14.6 9.6 64 3.5 S 9 15 5 8 1024.8 1024.7 0.0
21/06:30pm 16.7 15.3 9.6 63 3.7 S 7 13 4 7 1024.7 1024.6 0.0
21/06:00pm 17.1 15.8 9.3 60 4.0 SW 6 11 3 6 1024.5 1024.4 0.0
21/05:30pm 17.9 16.5 9.5 58 4.4 SSW 7 13 4 7 1024.4 1024.3 0.0
21/05:00pm 18.7 16.3 8.7 52 5.2 SW 11 17 6 9 1024.3 1024.2 0.0
21/04:30pm 19.6 16.7 8.0 47 6.0 SSW 13 19 7 10 1024.2 1024.1 0.0
21/04:00pm 20.3 17.4 8.3 46 6.2 SSW 13 19 7 10 1024.4 1024.3 0.0

Latest Capital City Observations: Canberra | Sydney | Melbourne | Brisbane | Adelaide | Perth | Hobart | Darwin

Other formats

Comma delimited format used in spreadsheet applications
http://www.bom.gov.au/fwo/IDW60901/IDW60901.94608.axf

JavaScript Object Notation format (JSON) in row-major order
http://www.bom.gov.au/fwo/IDW60901/IDW60901.94608.json

Data quality

Most of these data are generated automatically and are frequently updated. Quality checks on data are not normally performed. It is possible for incorrect values to appear. Refer to information at About Latest Weather Observations and please check the disclaimer before using these data.